sensor_id;sensor_type;location;lat;lon;timestamp;P1;durP1;ratioP1;P2;durP2;ratioP2
20203;SDS011;10261;49.010;12.034;2023-02-12T00:00:23;28.20;;;15.55;;
20203;SDS011;10261;49.010;12.034;2023-02-12T00:01:27;26.20;;;14.18;;
20203;SDS011;10261;49.010;12.034;2023-02-12T00:02:30;24.33;;;13.05;;
20203;SDS011;10261;49.010;12.034;2023-02-12T00:03:33;21.42;;;12.57;;
20203;SDS011;10261;49.010;12.034;2023-02-12T00:04:36;30.67;;;13.75;;
20203;SDS011;10261;49.010;12.034;2023-02-12T00:05:39;24.45;;;13.75;;
20203;SDS011;10261;49.010;12.034;2023-02-12T00:06:42;23.25;;;14.63;;
20203;SDS011;10261;49.010;12.034;2023-02-12T00:07:44;27.25;;;14.40;;
20203;SDS011;10261;49.010;12.034;2023-02-12T00:08:48;24.65;;;13.15;;
20203;SDS011;10261;49.010;12.034;2023-02-12T00:09:50;25.40;;;15.13;;
20203;SDS011;10261;49.010;12.034;2023-02-12T00:10:55;25.95;;;14.77;;
20203;SDS011;10261;49.010;12.034;2023-02-12T00:11:57;23.90;;;13.60;;
20203;SDS011;10261;49.010;12.034;2023-02-12T00:13:00;24.52;;;13.30;;
20203;SDS011;10261;49.010;12.034;2023-02-12T00:14:02;22.20;;;12.93;;
20203;SDS011;10261;49.010;12.034;2023-02-12T00:15:06;26.67;;;14.63;;
20203;SDS011;10261;49.010;12.034;2023-02-12T00:16:09;24.98;;;14.15;;
20203;SDS011;10261;49.010;12.034;2023-02-12T00:17:14;25.20;;;14.93;;
20203;SDS011;10261;49.010;12.034;2023-02-12T00:18:16;26.73;;;14.07;;
20203;SDS011;10261;49.010;12.034;2023-02-12T00:19:19;23.90;;;13.50;;
20203;SDS011;10261;49.010;12.034;2023-02-12T00:20:21;26.35;;;14.80;;
20203;SDS011;10261;49.010;12.034;2023-02-12T00:21:24;28.08;;;15.07;;
20203;SDS011;10261;49.010;12.034;2023-02-12T00:22:26;25.90;;;14.23;;
20203;SDS011;10261;49.010;12.034;2023-02-12T00:23:29;23.83;;;14.30;;
20203;SDS011;10261;49.010;12.034;2023-02-12T00:24:32;28.98;;;15.15;;
20203;SDS011;10261;49.010;12.034;2023-02-12T00:25:39;21.83;;;13.77;;
20203;SDS011;10261;49.010;12.034;2023-02-12T00:26:43;25.15;;;14.48;;
20203;SDS011;10261;49.010;12.034;2023-02-12T00:27:48;24.83;;;14.10;;
20203;SDS011;10261;49.010;12.034;2023-02-12T00:28:50;26.77;;;15.10;;
20203;SDS011;10261;49.010;12.034;2023-02-12T00:29:53;25.50;;;14.60;;
20203;SDS011;10261;49.010;12.034;2023-02-12T00:30:56;28.10;;;13.52;;
20203;SDS011;10261;49.010;12.034;2023-02-12T00:31:58;29.42;;;14.93;;
20203;SDS011;10261;49.010;12.034;2023-02-12T00:33:02;29.02;;;15.07;;
20203;SDS011;10261;49.010;12.034;2023-02-12T00:34:04;23.60;;;12.80;;
20203;SDS011;10261;49.010;12.034;2023-02-12T00:35:07;23.15;;;13.90;;
20203;SDS011;10261;49.010;12.034;2023-02-12T00:36:09;24.77;;;13.27;;
20203;SDS011;10261;49.010;12.034;2023-02-12T00:37:15;27.35;;;14.25;;
20203;SDS011;10261;49.010;12.034;2023-02-12T00:38:18;26.63;;;14.43;;
20203;SDS011;10261;49.010;12.034;2023-02-12T00:39:20;27.80;;;15.68;;
20203;SDS011;10261;49.010;12.034;2023-02-12T00:40:23;27.85;;;15.40;;
20203;SDS011;10261;49.010;12.034;2023-02-12T00:41:25;28.23;;;15.20;;
20203;SDS011;10261;49.010;12.034;2023-02-12T00:42:30;28.30;;;15.23;;
20203;SDS011;10261;49.010;12.034;2023-02-12T00:43:32;33.65;;;16.95;;
20203;SDS011;10261;49.010;12.034;2023-02-12T00:44:35;26.20;;;14.77;;
20203;SDS011;10261;49.010;12.034;2023-02-12T00:45:37;31.48;;;15.90;;
20203;SDS011;10261;49.010;12.034;2023-02-12T00:46:40;29.30;;;15.20;;
20203;SDS011;10261;49.010;12.034;2023-02-12T00:47:42;26.05;;;14.95;;
20203;SDS011;10261;49.010;12.034;2023-02-12T00:48:45;36.10;;;18.13;;
20203;SDS011;10261;49.010;12.034;2023-02-12T00:49:47;39.78;;;21.10;;
20203;SDS011;10261;49.010;12.034;2023-02-12T00:50:50;69.82;;;35.53;;
20203;SDS011;10261;49.010;12.034;2023-02-12T00:51:53;110.03;;;49.70;;
20203;SDS011;10261;49.010;12.034;2023-02-12T00:52:56;73.32;;;36.92;;
20203;SDS011;10261;49.010;12.034;2023-02-12T00:53:58;49.08;;;25.13;;
20203;SDS011;10261;49.010;12.034;2023-02-12T00:55:01;37.28;;;21.45;;
20203;SDS011;10261;49.010;12.034;2023-02-12T00:56:03;41.75;;;23.00;;
20203;SDS011;10261;49.010;12.034;2023-02-12T00:57:06;38.88;;;20.08;;
20203;SDS011;10261;49.010;12.034;2023-02-12T00:58:09;34.58;;;19.98;;
20203;SDS011;10261;49.010;12.034;2023-02-12T00:59:13;36.17;;;20.25;;
20203;SDS011;10261;49.010;12.034;2023-02-12T01:00:15;36.58;;;18.10;;
20203;SDS011;10261;49.010;12.034;2023-02-12T01:01:18;25.90;;;15.63;;
20203;SDS011;10261;49.010;12.034;2023-02-12T01:02:20;32.70;;;17.02;;
20203;SDS011;10261;49.010;12.034;2023-02-12T01:03:23;33.72;;;17.80;;
20203;SDS011;10261;49.010;12.034;2023-02-12T01:04:26;28.63;;;16.30;;
20203;SDS011;10261;49.010;12.034;2023-02-12T01:05:29;33.55;;;16.55;;
20203;SDS011;10261;49.010;12.034;2023-02-12T01:06:31;35.65;;;17.77;;
20203;SDS011;10261;49.010;12.034;2023-02-12T01:07:34;28.17;;;15.60;;
20203;SDS011;10261;49.010;12.034;2023-02-12T01:08:38;23.70;;;14.55;;
20203;SDS011;10261;49.010;12.034;2023-02-12T01:09:41;28.42;;;15.55;;
20203;SDS011;10261;49.010;12.034;2023-02-12T01:10:43;25.75;;;14.75;;
20203;SDS011;10261;49.010;12.034;2023-02-12T01:11:47;22.10;;;13.98;;
20203;SDS011;10261;49.010;12.034;2023-02-12T01:12:50;27.25;;;15.80;;
20203;SDS011;10261;49.010;12.034;2023-02-12T01:13:53;26.27;;;14.75;;
20203;SDS011;10261;49.010;12.034;2023-02-12T01:14:56;23.90;;;14.90;;
20203;SDS011;10261;49.010;12.034;2023-02-12T01:16:02;24.77;;;15.57;;
20203;SDS011;10261;49.010;12.034;2023-02-12T01:17:08;26.20;;;14.43;;
20203;SDS011;10261;49.010;12.034;2023-02-12T01:18:10;31.88;;;15.70;;
20203;SDS011;10261;49.010;12.034;2023-02-12T01:19:16;25.00;;;14.65;;
20203;SDS011;10261;49.010;12.034;2023-02-12T01:20:19;22.63;;;14.40;;
20203;SDS011;10261;49.010;12.034;2023-02-12T01:21:25;23.38;;;12.68;;
20203;SDS011;10261;49.010;12.034;2023-02-12T01:22:29;28.75;;;14.85;;
20203;SDS011;10261;49.010;12.034;2023-02-12T01:23:32;22.80;;;13.57;;
20203;SDS011;10261;49.010;12.034;2023-02-12T01:24:34;26.33;;;13.63;;
20203;SDS011;10261;49.010;12.034;2023-02-12T01:25:37;27.73;;;13.10;;
20203;SDS011;10261;49.010;12.034;2023-02-12T01:26:39;23.27;;;14.43;;
20203;SDS011;10261;49.010;12.034;2023-02-12T01:27:42;25.85;;;13.77;;
20203;SDS011;10261;49.010;12.034;2023-02-12T01:28:47;23.08;;;13.25;;
20203;SDS011;10261;49.010;12.034;2023-02-12T01:29:53;25.80;;;14.02;;
20203;SDS011;10261;49.010;12.034;2023-02-12T01:30:55;27.85;;;14.65;;
20203;SDS011;10261;49.010;12.034;2023-02-12T01:31:58;26.63;;;14.00;;
20203;SDS011;10261;49.010;12.034;2023-02-12T01:33:00;25.83;;;14.95;;
20203;SDS011;10261;49.010;12.034;2023-02-12T01:34:04;21.60;;;13.40;;
20203;SDS011;10261;49.010;12.034;2023-02-12T01:35:07;29.23;;;14.68;;
20203;SDS011;10261;49.010;12.034;2023-02-12T01:36:11;26.88;;;14.00;;
20203;SDS011;10261;49.010;12.034;2023-02-12T01:37:13;26.50;;;14.13;;
20203;SDS011;10261;49.010;12.034;2023-02-12T01:38:16;27.48;;;15.55;;
20203;SDS011;10261;49.010;12.034;2023-02-12T01:39:17;22.92;;;13.80;;
20203;SDS011;10261;49.010;12.034;2023-02-12T01:40:20;23.45;;;13.25;;
20203;SDS011;10261;49.010;12.034;2023-02-12T01:41:24;22.45;;;13.02;;
20203;SDS011;10261;49.010;12.034;2023-02-12T01:42:28;23.02;;;13.27;;
20203;SDS011;10261;49.010;12.034;2023-02-12T01:43:30;25.90;;;14.02;;
20203;SDS011;10261;49.010;12.034;2023-02-12T01:44:35;25.70;;;14.00;;
20203;SDS011;10261;49.010;12.034;2023-02-12T01:47:02;22.15;;;12.68;;
20203;SDS011;10261;49.010;12.034;2023-02-12T01:48:05;21.88;;;12.27;;
20203;SDS011;10261;49.010;12.034;2023-02-12T01:49:11;31.35;;;14.20;;
20203;SDS011;10261;49.010;12.034;2023-02-12T01:50:17;21.85;;;12.95;;
20203;SDS011;10261;49.010;12.034;2023-02-12T01:51:21;23.23;;;13.00;;
20203;SDS011;10261;49.010;12.034;2023-02-12T01:52:27;25.55;;;14.02;;
20203;SDS011;10261;49.010;12.034;2023-02-12T01:53:34;22.80;;;14.10;;
20203;SDS011;10261;49.010;12.034;2023-02-12T01:54:38;23.20;;;13.27;;
20203;SDS011;10261;49.010;12.034;2023-02-12T01:55:41;27.35;;;16.00;;
20203;SDS011;10261;49.010;12.034;2023-02-12T01:56:43;20.38;;;12.95;;
20203;SDS011;10261;49.010;12.034;2023-02-12T01:57:47;25.98;;;14.00;;
20203;SDS011;10261;49.010;12.034;2023-02-12T01:58:49;25.60;;;14.20;;
20203;SDS011;10261;49.010;12.034;2023-02-12T01:59:54;24.48;;;14.18;;
20203;SDS011;10261;49.010;12.034;2023-02-12T02:00:59;27.00;;;14.20;;
20203;SDS011;10261;49.010;12.034;2023-02-12T02:02:03;26.92;;;14.52;;
20203;SDS011;10261;49.010;12.034;2023-02-12T02:03:06;24.83;;;14.75;;
20203;SDS011;10261;49.010;12.034;2023-02-12T02:04:10;25.05;;;13.25;;
20203;SDS011;10261;49.010;12.034;2023-02-12T02:05:17;25.45;;;14.32;;
20203;SDS011;10261;49.010;12.034;2023-02-12T02:06:30;26.63;;;14.13;;
20203;SDS011;10261;49.010;12.034;2023-02-12T02:07:34;26.60;;;14.25;;
20203;SDS011;10261;49.010;12.034;2023-02-12T02:08:37;24.20;;;13.93;;
20203;SDS011;10261;49.010;12.034;2023-02-12T02:09:40;28.63;;;15.65;;
20203;SDS011;10261;49.010;12.034;2023-02-12T02:10:44;24.10;;;14.48;;
20203;SDS011;10261;49.010;12.034;2023-02-12T02:11:46;28.50;;;15.65;;
20203;SDS011;10261;49.010;12.034;2023-02-12T02:13:07;32.47;;;14.63;;
20203;SDS011;10261;49.010;12.034;2023-02-12T02:14:28;27.58;;;14.00;;
20203;SDS011;10261;49.010;12.034;2023-02-12T02:15:33;25.13;;;13.98;;
20203;SDS011;10261;49.010;12.034;2023-02-12T02:16:39;26.55;;;14.45;;
20203;SDS011;10261;49.010;12.034;2023-02-12T02:17:49;24.85;;;14.43;;
20203;SDS011;10261;49.010;12.034;2023-02-12T02:18:56;23.08;;;13.23;;
20203;SDS011;10261;49.010;12.034;2023-02-12T02:20:10;26.88;;;13.45;;
20203;SDS011;10261;49.010;12.034;2023-02-12T02:21:35;29.58;;;14.60;;
20203;SDS011;10261;49.010;12.034;2023-02-12T02:23:08;27.48;;;13.15;;
20203;SDS011;10261;49.010;12.034;2023-02-12T02:24:48;24.35;;;11.60;;
20203;SDS011;10261;49.010;12.034;2023-02-12T02:26:21;19.45;;;11.52;;
20203;SDS011;10261;49.010;12.034;2023-02-12T02:27:49;20.65;;;13.00;;
20203;SDS011;10261;49.010;12.034;2023-02-12T02:29:07;22.38;;;12.68;;
20203;SDS011;10261;49.010;12.034;2023-02-12T02:30:28;25.17;;;13.50;;
20203;SDS011;10261;49.010;12.034;2023-02-12T02:31:36;24.42;;;13.65;;
20203;SDS011;10261;49.010;12.034;2023-02-12T02:32:44;23.60;;;13.43;;
20203;SDS011;10261;49.010;12.034;2023-02-12T02:33:55;21.27;;;12.18;;
20203;SDS011;10261;49.010;12.034;2023-02-12T02:35:03;21.35;;;12.88;;
20203;SDS011;10261;49.010;12.034;2023-02-12T02:36:17;20.70;;;11.38;;
20203;SDS011;10261;49.010;12.034;2023-02-12T02:37:27;25.70;;;14.45;;
20203;SDS011;10261;49.010;12.034;2023-02-12T02:38:33;21.50;;;12.30;;
20203;SDS011;10261;49.010;12.034;2023-02-12T02:39:45;23.15;;;13.63;;
20203;SDS011;10261;49.010;12.034;2023-02-12T02:40:52;28.42;;;13.63;;
20203;SDS011;10261;49.010;12.034;2023-02-12T02:41:59;25.92;;;12.98;;
20203;SDS011;10261;49.010;12.034;2023-02-12T02:43:08;26.10;;;13.23;;
20203;SDS011;10261;49.010;12.034;2023-02-12T02:44:16;25.55;;;13.93;;
20203;SDS011;10261;49.010;12.034;2023-02-12T02:45:24;23.92;;;12.63;;
20203;SDS011;10261;49.010;12.034;2023-02-12T02:46:33;25.25;;;12.70;;
20203;SDS011;10261;49.010;12.034;2023-02-12T02:47:40;26.08;;;14.20;;
20203;SDS011;10261;49.010;12.034;2023-02-12T02:48:48;21.38;;;12.15;;
20203;SDS011;10261;49.010;12.034;2023-02-12T02:49:53;19.60;;;11.98;;
20203;SDS011;10261;49.010;12.034;2023-02-12T02:51:00;25.75;;;14.90;;
20203;SDS011;10261;49.010;12.034;2023-02-12T02:52:08;26.60;;;13.60;;
20203;SDS011;10261;49.010;12.034;2023-02-12T02:53:15;23.33;;;13.43;;
20203;SDS011;10261;49.010;12.034;2023-02-12T02:54:22;21.98;;;13.55;;
20203;SDS011;10261;49.010;12.034;2023-02-12T02:55:32;25.58;;;13.45;;
20203;SDS011;10261;49.010;12.034;2023-02-12T02:56:40;23.42;;;13.40;;
20203;SDS011;10261;49.010;12.034;2023-02-12T02:57:47;28.83;;;14.73;;
20203;SDS011;10261;49.010;12.034;2023-02-12T02:58:57;28.13;;;13.63;;
20203;SDS011;10261;49.010;12.034;2023-02-12T03:00:04;25.10;;;13.35;;
20203;SDS011;10261;49.010;12.034;2023-02-12T03:01:14;25.23;;;14.30;;
20203;SDS011;10261;49.010;12.034;2023-02-12T03:02:20;24.50;;;12.63;;
20203;SDS011;10261;49.010;12.034;2023-02-12T03:03:26;23.30;;;12.98;;
20203;SDS011;10261;49.010;12.034;2023-02-12T03:04:34;23.90;;;12.90;;
20203;SDS011;10261;49.010;12.034;2023-02-12T03:05:42;24.58;;;13.35;;
20203;SDS011;10261;49.010;12.034;2023-02-12T03:06:51;28.27;;;14.20;;
20203;SDS011;10261;49.010;12.034;2023-02-12T03:08:00;24.42;;;12.80;;
20203;SDS011;10261;49.010;12.034;2023-02-12T03:09:08;24.23;;;12.85;;
20203;SDS011;10261;49.010;12.034;2023-02-12T03:10:17;24.38;;;13.30;;
20203;SDS011;10261;49.010;12.034;2023-02-12T03:11:23;22.23;;;13.55;;
20203;SDS011;10261;49.010;12.034;2023-02-12T03:12:30;28.13;;;14.18;;
20203;SDS011;10261;49.010;12.034;2023-02-12T03:13:38;24.92;;;13.30;;
20203;SDS011;10261;49.010;12.034;2023-02-12T03:14:47;29.25;;;13.57;;
20203;SDS011;10261;49.010;12.034;2023-02-12T03:15:55;21.67;;;12.75;;
20203;SDS011;10261;49.010;12.034;2023-02-12T03:17:06;28.35;;;14.15;;
20203;SDS011;10261;49.010;12.034;2023-02-12T03:18:11;23.67;;;13.00;;
20203;SDS011;10261;49.010;12.034;2023-02-12T03:19:22;21.55;;;12.70;;
20203;SDS011;10261;49.010;12.034;2023-02-12T03:20:27;23.55;;;13.15;;
20203;SDS011;10261;49.010;12.034;2023-02-12T03:21:32;23.25;;;12.93;;
20203;SDS011;10261;49.010;12.034;2023-02-12T03:22:38;23.48;;;13.73;;
20203;SDS011;10261;49.010;12.034;2023-02-12T03:23:45;26.85;;;13.52;;
20203;SDS011;10261;49.010;12.034;2023-02-12T03:24:53;22.95;;;12.90;;
20203;SDS011;10261;49.010;12.034;2023-02-12T03:26:00;25.17;;;14.65;;
20203;SDS011;10261;49.010;12.034;2023-02-12T03:27:07;27.00;;;13.32;;
20203;SDS011;10261;49.010;12.034;2023-02-12T03:28:15;27.52;;;14.60;;
20203;SDS011;10261;49.010;12.034;2023-02-12T03:29:20;25.50;;;12.30;;
20203;SDS011;10261;49.010;12.034;2023-02-12T03:30:23;25.38;;;11.82;;
20203;SDS011;10261;49.010;12.034;2023-02-12T03:31:36;23.35;;;12.90;;
20203;SDS011;10261;49.010;12.034;2023-02-12T03:32:58;21.33;;;13.25;;
20203;SDS011;10261;49.010;12.034;2023-02-12T03:34:10;22.33;;;13.25;;
20203;SDS011;10261;49.010;12.034;2023-02-12T03:35:20;25.75;;;13.40;;
20203;SDS011;10261;49.010;12.034;2023-02-12T03:36:26;30.65;;;15.80;;
20203;SDS011;10261;49.010;12.034;2023-02-12T03:37:35;23.65;;;12.70;;
20203;SDS011;10261;49.010;12.034;2023-02-12T03:38:42;28.52;;;13.95;;
20203;SDS011;10261;49.010;12.034;2023-02-12T03:39:48;27.50;;;14.52;;
20203;SDS011;10261;49.010;12.034;2023-02-12T03:40:57;24.58;;;13.40;;
20203;SDS011;10261;49.010;12.034;2023-02-12T03:42:04;24.80;;;13.45;;
20203;SDS011;10261;49.010;12.034;2023-02-12T03:43:13;22.80;;;12.10;;
20203;SDS011;10261;49.010;12.034;2023-02-12T03:44:22;22.52;;;12.88;;
20203;SDS011;10261;49.010;12.034;2023-02-12T03:45:39;27.25;;;13.93;;
20203;SDS011;10261;49.010;12.034;2023-02-12T03:46:49;24.27;;;12.77;;
20203;SDS011;10261;49.010;12.034;2023-02-12T03:48:01;22.67;;;13.00;;
20203;SDS011;10261;49.010;12.034;2023-02-12T03:49:09;25.23;;;12.15;;
20203;SDS011;10261;49.010;12.034;2023-02-12T03:50:18;20.77;;;11.85;;
20203;SDS011;10261;49.010;12.034;2023-02-12T03:51:28;29.27;;;14.00;;
20203;SDS011;10261;49.010;12.034;2023-02-12T03:52:34;24.40;;;12.95;;
20203;SDS011;10261;49.010;12.034;2023-02-12T03:53:36;26.65;;;14.38;;
20203;SDS011;10261;49.010;12.034;2023-02-12T03:54:39;27.95;;;13.43;;
20203;SDS011;10261;49.010;12.034;2023-02-12T03:55:42;24.48;;;12.75;;
20203;SDS011;10261;49.010;12.034;2023-02-12T03:56:49;21.50;;;13.15;;
20203;SDS011;10261;49.010;12.034;2023-02-12T03:57:54;26.55;;;15.10;;
20203;SDS011;10261;49.010;12.034;2023-02-12T03:59:02;26.92;;;13.38;;
20203;SDS011;10261;49.010;12.034;2023-02-12T04:00:06;22.98;;;13.45;;
20203;SDS011;10261;49.010;12.034;2023-02-12T04:01:11;28.67;;;13.75;;
20203;SDS011;10261;49.010;12.034;2023-02-12T04:02:14;20.30;;;12.82;;
20203;SDS011;10261;49.010;12.034;2023-02-12T04:03:20;25.60;;;13.45;;
20203;SDS011;10261;49.010;12.034;2023-02-12T04:04:23;27.17;;;13.80;;
20203;SDS011;10261;49.010;12.034;2023-02-12T04:05:27;24.52;;;13.45;;
20203;SDS011;10261;49.010;12.034;2023-02-12T04:06:29;23.35;;;13.13;;
20203;SDS011;10261;49.010;12.034;2023-02-12T04:07:32;22.83;;;12.90;;
20203;SDS011;10261;49.010;12.034;2023-02-12T04:08:35;23.90;;;13.98;;
20203;SDS011;10261;49.010;12.034;2023-02-12T04:09:38;26.17;;;13.80;;
20203;SDS011;10261;49.010;12.034;2023-02-12T04:10:42;29.85;;;14.57;;
20203;SDS011;10261;49.010;12.034;2023-02-12T04:11:58;30.95;;;14.02;;
20203;SDS011;10261;49.010;12.034;2023-02-12T04:13:10;26.98;;;14.95;;
20203;SDS011;10261;49.010;12.034;2023-02-12T04:14:22;23.65;;;13.20;;
20203;SDS011;10261;49.010;12.034;2023-02-12T04:15:35;31.67;;;12.68;;
20203;SDS011;10261;49.010;12.034;2023-02-12T04:16:47;23.73;;;12.95;;
20203;SDS011;10261;49.010;12.034;2023-02-12T04:17:56;23.10;;;12.82;;
20203;SDS011;10261;49.010;12.034;2023-02-12T04:19:05;26.35;;;13.10;;
20203;SDS011;10261;49.010;12.034;2023-02-12T04:20:12;24.67;;;12.90;;
20203;SDS011;10261;49.010;12.034;2023-02-12T04:21:26;21.17;;;12.15;;
20203;SDS011;10261;49.010;12.034;2023-02-12T04:22:44;21.95;;;13.80;;
20203;SDS011;10261;49.010;12.034;2023-02-12T04:23:56;24.15;;;13.35;;
20203;SDS011;10261;49.010;12.034;2023-02-12T04:25:08;32.15;;;13.80;;
20203;SDS011;10261;49.010;12.034;2023-02-12T04:26:23;21.02;;;12.65;;
20203;SDS011;10261;49.010;12.034;2023-02-12T04:27:33;24.25;;;12.95;;
20203;SDS011;10261;49.010;12.034;2023-02-12T04:28:44;24.08;;;12.05;;
20203;SDS011;10261;49.010;12.034;2023-02-12T04:29:53;25.08;;;13.45;;
20203;SDS011;10261;49.010;12.034;2023-02-12T04:31:04;24.00;;;12.07;;
20203;SDS011;10261;49.010;12.034;2023-02-12T04:32:14;25.30;;;13.50;;
20203;SDS011;10261;49.010;12.034;2023-02-12T04:33:22;26.58;;;13.45;;
20203;SDS011;10261;49.010;12.034;2023-02-12T04:34:30;21.15;;;12.98;;
20203;SDS011;10261;49.010;12.034;2023-02-12T04:35:39;19.63;;;11.43;;
20203;SDS011;10261;49.010;12.034;2023-02-12T04:36:47;25.25;;;13.38;;
20203;SDS011;10261;49.010;12.034;2023-02-12T04:37:56;24.58;;;14.00;;
20203;SDS011;10261;49.010;12.034;2023-02-12T04:39:02;22.77;;;12.23;;
20203;SDS011;10261;49.010;12.034;2023-02-12T04:40:12;25.63;;;13.95;;
20203;SDS011;10261;49.010;12.034;2023-02-12T04:41:16;27.75;;;12.82;;
20203;SDS011;10261;49.010;12.034;2023-02-12T04:42:19;27.52;;;13.35;;
20203;SDS011;10261;49.010;12.034;2023-02-12T04:43:26;20.48;;;12.10;;
20203;SDS011;10261;49.010;12.034;2023-02-12T04:44:30;23.52;;;11.63;;
20203;SDS011;10261;49.010;12.034;2023-02-12T04:45:38;24.88;;;12.98;;
20203;SDS011;10261;49.010;12.034;2023-02-12T04:46:42;28.67;;;13.80;;
20203;SDS011;10261;49.010;12.034;2023-02-12T04:47:44;24.40;;;12.75;;
20203;SDS011;10261;49.010;12.034;2023-02-12T04:48:51;24.58;;;13.90;;
20203;SDS011;10261;49.010;12.034;2023-02-12T04:49:56;22.77;;;12.43;;
20203;SDS011;10261;49.010;12.034;2023-02-12T04:50:59;24.05;;;14.30;;
20203;SDS011;10261;49.010;12.034;2023-02-12T04:52:01;27.10;;;14.18;;
20203;SDS011;10261;49.010;12.034;2023-02-12T04:53:04;24.75;;;13.20;;
20203;SDS011;10261;49.010;12.034;2023-02-12T04:54:06;22.20;;;13.27;;
20203;SDS011;10261;49.010;12.034;2023-02-12T04:55:08;24.50;;;13.45;;
20203;SDS011;10261;49.010;12.034;2023-02-12T04:56:11;23.35;;;12.10;;
20203;SDS011;10261;49.010;12.034;2023-02-12T04:57:14;24.98;;;12.52;;
20203;SDS011;10261;49.010;12.034;2023-02-12T04:58:16;24.77;;;13.45;;
20203;SDS011;10261;49.010;12.034;2023-02-12T04:59:20;22.08;;;14.00;;
20203;SDS011;10261;49.010;12.034;2023-02-12T05:00:22;20.00;;;11.30;;
20203;SDS011;10261;49.010;12.034;2023-02-12T05:01:25;22.20;;;12.52;;
20203;SDS011;10261;49.010;12.034;2023-02-12T05:02:31;25.75;;;13.90;;
20203;SDS011;10261;49.010;12.034;2023-02-12T05:03:35;25.73;;;13.90;;
20203;SDS011;10261;49.010;12.034;2023-02-12T05:04:37;28.00;;;14.07;;
20203;SDS011;10261;49.010;12.034;2023-02-12T05:05:42;27.13;;;14.40;;
20203;SDS011;10261;49.010;12.034;2023-02-12T05:06:44;25.35;;;12.23;;
20203;SDS011;10261;49.010;12.034;2023-02-12T05:07:47;27.13;;;14.25;;
20203;SDS011;10261;49.010;12.034;2023-02-12T05:08:51;24.70;;;13.55;;
20203;SDS011;10261;49.010;12.034;2023-02-12T05:09:54;24.25;;;14.40;;
20203;SDS011;10261;49.010;12.034;2023-02-12T05:10:56;26.23;;;13.10;;
20203;SDS011;10261;49.010;12.034;2023-02-12T05:11:59;23.75;;;12.57;;
20203;SDS011;10261;49.010;12.034;2023-02-12T05:13:01;23.40;;;12.15;;
20203;SDS011;10261;49.010;12.034;2023-02-12T05:14:04;25.08;;;12.77;;
20203;SDS011;10261;49.010;12.034;2023-02-12T05:15:06;25.33;;;13.48;;
20203;SDS011;10261;49.010;12.034;2023-02-12T05:16:09;22.77;;;12.77;;
20203;SDS011;10261;49.010;12.034;2023-02-12T05:17:11;30.83;;;14.02;;
20203;SDS011;10261;49.010;12.034;2023-02-12T05:18:14;23.15;;;13.23;;
20203;SDS011;10261;49.010;12.034;2023-02-12T05:19:16;31.80;;;14.02;;
20203;SDS011;10261;49.010;12.034;2023-02-12T05:20:19;24.52;;;13.50;;
20203;SDS011;10261;49.010;12.034;2023-02-12T05:21:23;27.55;;;14.15;;
20203;SDS011;10261;49.010;12.034;2023-02-12T05:22:26;20.25;;;12.43;;
20203;SDS011;10261;49.010;12.034;2023-02-12T05:23:28;24.35;;;13.95;;
20203;SDS011;10261;49.010;12.034;2023-02-12T05:24:32;28.25;;;12.93;;
20203;SDS011;10261;49.010;12.034;2023-02-12T05:25:34;31.10;;;15.05;;
20203;SDS011;10261;49.010;12.034;2023-02-12T05:26:37;25.02;;;12.70;;
20203;SDS011;10261;49.010;12.034;2023-02-12T05:27:39;24.30;;;12.90;;
20203;SDS011;10261;49.010;12.034;2023-02-12T05:28:45;26.73;;;13.25;;
20203;SDS011;10261;49.010;12.034;2023-02-12T05:29:47;25.00;;;13.10;;
20203;SDS011;10261;49.010;12.034;2023-02-12T05:30:50;25.45;;;13.05;;
20203;SDS011;10261;49.010;12.034;2023-02-12T05:31:52;24.90;;;13.27;;
20203;SDS011;10261;49.010;12.034;2023-02-12T05:32:55;27.33;;;14.00;;
20203;SDS011;10261;49.010;12.034;2023-02-12T05:33:57;26.92;;;13.30;;
20203;SDS011;10261;49.010;12.034;2023-02-12T05:35:00;24.73;;;12.93;;
20203;SDS011;10261;49.010;12.034;2023-02-12T05:36:03;29.92;;;13.85;;
20203;SDS011;10261;49.010;12.034;2023-02-12T05:37:08;22.13;;;12.23;;
20203;SDS011;10261;49.010;12.034;2023-02-12T05:38:11;27.13;;;11.88;;
20203;SDS011;10261;49.010;12.034;2023-02-12T05:39:13;20.75;;;12.70;;
20203;SDS011;10261;49.010;12.034;2023-02-12T05:40:17;24.58;;;12.15;;
20203;SDS011;10261;49.010;12.034;2023-02-12T05:41:20;27.25;;;13.80;;
20203;SDS011;10261;49.010;12.034;2023-02-12T05:42:25;25.10;;;13.05;;
20203;SDS011;10261;49.010;12.034;2023-02-12T05:43:27;26.45;;;13.27;;
20203;SDS011;10261;49.010;12.034;2023-02-12T05:44:30;29.55;;;13.50;;
20203;SDS011;10261;49.010;12.034;2023-02-12T05:45:32;32.90;;;13.82;;
20203;SDS011;10261;49.010;12.034;2023-02-12T05:46:35;23.63;;;12.90;;
20203;SDS011;10261;49.010;12.034;2023-02-12T05:47:37;26.70;;;13.60;;
20203;SDS011;10261;49.010;12.034;2023-02-12T05:48:40;28.40;;;14.80;;
20203;SDS011;10261;49.010;12.034;2023-02-12T05:49:42;26.52;;;13.93;;
20203;SDS011;10261;49.010;12.034;2023-02-12T05:50:45;26.67;;;13.98;;
20203;SDS011;10261;49.010;12.034;2023-02-12T05:51:47;24.10;;;13.90;;
20203;SDS011;10261;49.010;12.034;2023-02-12T05:52:52;27.70;;;12.95;;
20203;SDS011;10261;49.010;12.034;2023-02-12T05:53:55;22.88;;;12.60;;
20203;SDS011;10261;49.010;12.034;2023-02-12T05:55:00;36.03;;;13.05;;
20203;SDS011;10261;49.010;12.034;2023-02-12T05:56:09;27.27;;;14.00;;
20203;SDS011;10261;49.010;12.034;2023-02-12T05:57:13;26.13;;;14.05;;
20203;SDS011;10261;49.010;12.034;2023-02-12T05:58:16;27.45;;;13.20;;
20203;SDS011;10261;49.010;12.034;2023-02-12T05:59:19;26.63;;;13.75;;
20203;SDS011;10261;49.010;12.034;2023-02-12T06:00:24;25.08;;;13.30;;
20203;SDS011;10261;49.010;12.034;2023-02-12T06:01:28;32.75;;;14.80;;
20203;SDS011;10261;49.010;12.034;2023-02-12T06:02:33;26.25;;;13.90;;
20203;SDS011;10261;49.010;12.034;2023-02-12T06:03:35;24.20;;;13.27;;
20203;SDS011;10261;49.010;12.034;2023-02-12T06:04:38;29.00;;;13.25;;
20203;SDS011;10261;49.010;12.034;2023-02-12T06:05:40;26.08;;;13.30;;
20203;SDS011;10261;49.010;12.034;2023-02-12T06:06:43;27.75;;;14.13;;
20203;SDS011;10261;49.010;12.034;2023-02-12T06:07:46;27.10;;;13.63;;
20203;SDS011;10261;49.010;12.034;2023-02-12T06:08:49;24.50;;;13.02;;
20203;SDS011;10261;49.010;12.034;2023-02-12T06:09:52;20.67;;;11.55;;
20203;SDS011;10261;49.010;12.034;2023-02-12T06:10:57;20.92;;;12.18;;
20203;SDS011;10261;49.010;12.034;2023-02-12T06:12:01;22.70;;;12.18;;
20203;SDS011;10261;49.010;12.034;2023-02-12T06:13:04;25.65;;;14.48;;
20203;SDS011;10261;49.010;12.034;2023-02-12T06:14:07;26.33;;;13.95;;
20203;SDS011;10261;49.010;12.034;2023-02-12T06:15:12;25.08;;;14.48;;
20203;SDS011;10261;49.010;12.034;2023-02-12T06:16:18;24.75;;;13.38;;
20203;SDS011;10261;49.010;12.034;2023-02-12T06:17:23;24.48;;;13.77;;
20203;SDS011;10261;49.010;12.034;2023-02-12T06:18:25;23.80;;;13.52;;
20203;SDS011;10261;49.010;12.034;2023-02-12T06:19:28;22.33;;;12.85;;